Time;durP1;ratioP1;P1;durP2;ratioP2;P2;SDS_P1;SDS_P2;PMS_P1;PMS_P2;Temp;Humidity;BMP_temperature;BMP_pressure;BME280_temperature;BME280_humidity;BME280_pressure;Samples;Min_cycle;Max_cycle;Signal;HPM_P1;HPM_P2
2022/10/10 00:00:00;;;;;;;12.43;5.00;;;;;;;10.76;67.09;101130.16;5076826;28;20049;-54
2022/10/10 00:02:40;;;;;;;18.92;4.75;;;;;;;10.71;67.02;101137.75;5110848;27;20379;-53
2022/10/10 00:05:07;;;;;;;10.05;4.70;;;;;;;10.78;67.07;101139.81;5110418;28;20509;-53
2022/10/10 00:07:34;;;;;;;13.90;4.78;;;;;;;10.75;67.30;101136.47;5111026;28;20097;-53
2022/10/10 00:10:00;;;;;;;13.38;4.95;;;;;;;10.75;67.17;101128.50;5110895;28;20048;-53
2022/10/10 00:12:27;;;;;;;14.57;4.93;;;;;;;10.65;67.01;101132.19;5110426;28;20093;-52
2022/10/10 00:14:54;;;;;;;11.15;5.00;;;;;;;10.61;67.50;101136.09;5110530;28;20115;-53
2022/10/10 00:17:20;;;;;;;14.25;5.07;;;;;;;10.61;67.68;101126.31;5110768;28;20489;-53
2022/10/10 00:19:47;;;;;;;12.68;4.97;;;;;;;10.56;67.60;101134.69;5110998;28;20126;-53
2022/10/10 00:22:14;;;;;;;13.75;5.32;;;;;;;10.61;67.51;101128.16;5110624;28;20109;-56
2022/10/10 00:24:41;;;;;;;13.57;4.55;;;;;;;10.66;67.17;101128.53;5110734;28;20043;-53
2022/10/10 00:27:07;;;;;;;16.08;5.00;;;;;;;10.45;67.56;101136.72;5110220;28;20077;-54
2022/10/10 00:29:34;;;;;;;13.70;4.97;;;;;;;10.42;68.03;101132.50;5110608;28;20055;-53
2022/10/10 00:32:01;;;;;;;15.10;5.05;;;;;;;10.46;68.04;101133.06;5110377;28;20424;-54
2022/10/10 00:34:27;;;;;;;12.40;4.80;;;;;;;10.45;68.28;101131.41;5110489;28;20036;-54
2022/10/10 00:36:54;;;;;;;13.32;5.10;;;;;;;10.45;68.61;101137.53;5110607;28;20045;-54
2022/10/10 00:39:21;;;;;;;11.80;4.97;;;;;;;10.38;68.49;101131.97;5110027;28;20401;-54
2022/10/10 00:41:47;;;;;;;10.35;4.78;;;;;;;10.35;69.08;101134.91;5109953;28;20085;-54
2022/10/10 00:44:15;;;;;;;12.43;5.05;;;;;;;10.31;69.00;101136.16;5108637;28;20048;-54
2022/10/10 00:46:42;;;;;;;14.15;4.80;;;;;;;10.44;68.58;101132.38;5109229;28;20048;-53
2022/10/10 00:49:14;;;;;;;12.68;4.55;;;;;;;10.40;68.82;101131.81;5109989;28;20044;-53
2022/10/10 00:51:43;;;;;;;12.38;4.70;;;;;;;10.29;69.06;101124.00;4977134;28;20042;-54
2022/10/10 00:54:13;;;;;;;13.75;4.55;;;;;;;10.37;69.03;101121.53;5110097;28;20500;-53
2022/10/10 00:56:46;;;;;;;12.10;4.80;;;;;;;10.22;69.58;101123.72;5109728;28;20124;-53
2022/10/10 00:59:14;;;;;;;13.43;4.95;;;;;;;10.16;69.73;101121.66;5110093;28;20052;-53
2022/10/10 01:01:41;;;;;;;14.15;4.55;;;;;;;10.19;69.75;101110.78;5108103;28;20378;-53
2022/10/10 01:04:29;;;;;;;11.20;4.47;;;;;;;10.24;70.16;101110.31;5109553;28;20047;-54
2022/10/10 01:06:57;;;;;;;11.98;4.40;;;;;;;10.18;70.40;101111.75;5109458;28;20051;-53
2022/10/10 01:09:24;;;;;;;14.35;4.78;;;;;;;10.18;70.17;101111.75;5110040;28;20101;-55
2022/10/10 01:11:57;;;;;;;13.73;4.72;;;;;;;10.14;70.08;101105.06;5108659;28;20051;-53
2022/10/10 01:14:37;;;;;;;12.38;4.78;;;;;;;10.20;70.15;101107.13;5096014;28;20101;-54
2022/10/10 01:17:27;;;;;;;14.27;4.93;;;;;;;10.14;70.58;101100.59;5096210;28;20051;-55
2022/10/10 01:23:06;;;;;;;14.98;4.75;;;;;;;10.10;70.95;101098.38;5111130;27;20380;-53
2022/10/10 01:26:06;;;;;;;15.45;4.45;;;;;;;10.05;71.04;101100.59;5110177;28;20071;-54
2022/10/10 01:28:49;;;;;;;15.23;4.88;;;;;;;10.08;70.77;101097.69;5110941;28;20400;-53
2022/10/10 01:31:21;;;;;;;14.13;4.70;;;;;;;10.16;70.68;101090.66;5110471;28;20040;-53
2022/10/10 01:34:03;;;;;;;12.13;4.75;;;;;;;10.05;70.92;101090.84;5110845;28;20481;-52
2022/10/10 01:36:46;;;;;;;11.32;4.70;;;;;;;10.07;71.02;101096.00;5110349;28;20400;-57
2022/10/10 01:39:22;;;;;;;12.38;4.45;;;;;;;10.00;71.20;101085.13;5110990;28;20102;-53
2022/10/10 01:41:57;;;;;;;11.95;4.38;;;;;;;10.02;71.28;101088.47;5110278;28;20043;-51
2022/10/10 01:44:24;;;;;;;12.32;4.28;;;;;;;10.01;71.67;101080.69;5109434;28;20400;-52
2022/10/10 01:46:51;;;;;;;14.80;4.22;;;;;;;10.08;71.17;101079.13;5110466;28;20076;-54
2022/10/10 01:49:19;;;;;;;14.50;4.20;;;;;;;10.16;70.95;101077.41;5110685;28;20101;-53
2022/10/10 01:52:15;;;;;;;9.15;4.00;;;;;;;10.14;70.80;101076.72;4989331;28;20440;-54
2022/10/10 01:55:12;;;;;;;11.43;4.05;;;;;;;9.99;71.80;101078.16;5110280;28;20036;-54
2022/10/10 01:58:04;;;;;;;12.88;4.47;;;;;;;9.96;71.43;101076.63;5109812;28;20050;-54
2022/10/10 02:00:41;;;;;;;12.18;4.03;;;;;;;9.94;71.33;101075.09;5110161;28;20058;-53
2022/10/10 02:03:15;;;;;;;11.20;4.18;;;;;;;10.00;71.45;101069.22;5109885;28;20405;-53
2022/10/10 02:05:52;;;;;;;11.05;4.10;;;;;;;10.01;71.50;101067.44;5109615;28;20048;-54
2022/10/10 02:08:42;;;;;;;14.73;4.07;;;;;;;9.94;71.84;101069.78;5110452;28;20050;-54
2022/10/10 02:11:10;;;;;;;12.98;4.43;;;;;;;9.85;71.81;101065.34;5109798;28;20048;-53
2022/10/10 02:13:43;;;;;;;10.05;4.10;;;;;;;9.73;71.80;101060.19;5110311;28;20486;-52
2022/10/10 02:16:18;;;;;;;12.15;4.38;;;;;;;9.80;72.10;101060.44;5109932;28;20492;-54
2022/10/10 02:18:48;;;;;;;10.93;3.95;;;;;;;9.87;72.00;101056.25;5110205;28;20469;-53
2022/10/10 02:21:17;;;;;;;10.00;3.75;;;;;;;9.82;72.14;101062.97;5109459;28;20493;-53
2022/10/10 02:23:49;;;;;;;14.23;4.50;;;;;;;9.95;71.83;101056.41;5110121;28;20048;-54
2022/10/10 02:26:19;;;;;;;12.55;3.88;;;;;;;9.89;72.34;101056.13;5109508;28;20055;-54
2022/10/10 02:28:55;;;;;;;14.18;4.05;;;;;;;9.78;72.38;101052.66;5109937;28;20489;-54
2022/10/10 02:31:52;;;;;;;17.38;4.78;;;;;;;9.82;72.55;101047.91;5109622;28;20397;-54
2022/10/10 02:34:24;;;;;;;12.10;4.40;;;;;;;9.81;72.61;101046.25;5095682;28;20581;-53
2022/10/10 02:36:57;;;;;;;15.40;3.85;;;;;;;9.83;72.79;101046.09;5096278;28;20625;-53
2022/10/10 02:39:29;;;;;;;13.02;4.30;;;;;;;9.78;72.45;101036.75;5096014;28;20126;-54
2022/10/10 02:41:56;;;;;;;9.88;4.10;;;;;;;9.86;72.46;101035.22;5095880;28;20048;-56
2022/10/10 02:44:24;;;;;;;13.27;4.28;;;;;;;9.78;72.56;101031.44;5095732;28;20486;-52
2022/10/10 02:46:52;;;;;;;13.38;4.03;;;;;;;9.82;72.93;101033.81;5095799;28;20067;-54
2022/10/10 02:49:24;;;;;;;13.20;4.25;;;;;;;9.79;72.83;101032.31;5095762;28;20044;-54
2022/10/10 02:51:51;;;;;;;11.80;4.93;;;;;;;9.84;72.32;101032.72;4970946;28;20042;-54
2022/10/10 02:54:18;;;;;;;14.70;4.00;;;;;;;9.73;72.63;101027.56;5095734;28;20099;-52
2022/10/10 02:56:44;;;;;;;18.02;4.55;;;;;;;9.71;73.12;101030.34;5095249;28;20040;-54
2022/10/10 02:59:11;;;;;;;10.07;3.90;;;;;;;9.78;72.68;101034.09;5095957;28;20070;-53
2022/10/10 03:01:38;;;;;;;12.32;4.45;;;;;;;9.78;72.73;101026.16;5095181;28;20039;-55
2022/10/10 03:04:04;;;;;;;11.95;4.43;;;;;;;9.76;72.99;101017.50;5095334;28;20090;-54
2022/10/10 03:06:31;;;;;;;12.77;4.38;;;;;;;9.79;72.96;101019.88;5094928;28;20066;-54
2022/10/10 03:08:57;;;;;;;13.18;4.43;;;;;;;9.70;72.88;101020.75;5095929;28;20402;-54
2022/10/10 03:11:24;;;;;;;15.50;4.30;;;;;;;9.65;73.23;101025.63;5093982;28;20051;-55
2022/10/10 03:13:51;;;;;;;13.73;4.47;;;;;;;9.71;73.13;101021.56;5095389;28;20113;-53
2022/10/10 03:16:17;;;;;;;11.95;4.38;;;;;;;9.70;73.01;101022.56;5094281;28;20139;-54
2022/10/10 03:18:44;;;;;;;18.25;4.70;;;;;;;9.63;73.26;101016.97;5095294;28;20069;-52
2022/10/10 03:21:11;;;;;;;11.45;4.65;;;;;;;9.61;72.95;101014.47;5095007;28;20505;-53
2022/10/10 03:23:37;;;;;;;12.50;4.60;;;;;;;9.69;72.97;101012.94;5095120;28;20506;-54
2022/10/10 03:26:05;;;;;;;10.00;4.03;;;;;;;9.73;72.76;101015.16;5094749;28;20454;-53
2022/10/10 03:28:31;;;;;;;11.10;3.90;;;;;;;9.66;73.21;101016.72;5094987;28;20370;-55
2022/10/10 03:30:58;;;;;;;11.73;4.20;;;;;;;9.63;73.85;101019.63;5093799;28;20097;-53
2022/10/10 03:33:25;;;;;;;11.73;4.20;;;;;;;9.58;74.16;101019.22;5095154;28;20044;-54
2022/10/10 03:35:52;;;;;;;9.68;3.92;;;;;;;9.69;73.99;101019.06;5094933;28;20048;-54
2022/10/10 03:38:18;;;;;;;11.93;4.50;;;;;;;9.75;73.63;101020.28;5095043;28;20056;-54
2022/10/10 03:40:45;;;;;;;12.23;4.68;;;;;;;9.69;74.60;101019.06;5094826;28;20040;-54
2022/10/10 03:43:13;;;;;;;16.45;5.20;;;;;;;9.74;74.69;101018.66;5094420;28;20129;-53
2022/10/10 03:45:43;;;;;;;10.60;4.63;;;;;;;9.74;74.62;101022.13;5093814;28;20051;-54
2022/10/10 03:48:11;;;;;;;11.38;4.72;;;;;;;9.77;74.39;101015.72;5094643;28;20044;-53
2022/10/10 03:50:38;;;;;;;14.60;4.32;;;;;;;9.58;74.64;101016.56;5064522;28;20043;-54
2022/10/10 03:53:05;;;;;;;17.85;4.38;;;;;;;9.67;75.24;101014.88;5002754;28;20429;-54
2022/10/10 03:55:32;;;;;;;11.20;5.10;;;;;;;9.76;74.75;101011.38;5094385;28;20032;-53
2022/10/10 03:57:59;;;;;;;14.23;4.80;;;;;;;9.69;75.03;101012.94;5093899;28;20040;-53
2022/10/10 04:00:25;;;;;;;12.40;4.15;;;;;;;9.71;74.93;101008.31;5094365;28;20040;-53
2022/10/10 04:02:52;;;;;;;10.73;3.97;;;;;;;9.70;74.75;101007.50;5094468;28;20048;-52
2022/10/10 04:05:20;;;;;;;15.27;4.70;;;;;;;9.73;74.96;101007.22;5093776;28;20048;-52
2022/10/10 04:07:47;;;;;;;11.68;4.00;;;;;;;9.63;74.94;100997.63;5094159;28;20436;-52
2022/10/10 04:10:13;;;;;;;11.13;4.38;;;;;;;9.70;75.04;101006.66;5094129;28;20047;-54
2022/10/10 04:12:40;;;;;;;11.90;4.38;;;;;;;9.78;75.14;100996.19;5094367;28;20090;-53
2022/10/10 04:15:07;;;;;;;11.38;4.82;;;;;;;9.70;75.16;100999.53;5094128;28;20044;-53
2022/10/10 04:17:34;;;;;;;11.70;4.20;;;;;;;9.73;75.51;101006.34;5094292;28;20055;-54
2022/10/10 04:20:00;;;;;;;10.85;4.82;;;;;;;9.76;75.34;100998.13;5092937;28;20094;-53
2022/10/10 04:22:27;;;;;;;14.90;5.00;;;;;;;9.73;75.35;101004.56;5093604;28;20523;-54
2022/10/10 04:24:54;;;;;;;11.35;4.53;;;;;;;9.75;75.39;100994.66;5092501;28;20052;-52
2022/10/10 04:27:20;;;;;;;15.52;4.95;;;;;;;9.75;75.07;100999.97;5092242;28;20056;-53
2022/10/10 04:29:47;;;;;;;12.50;4.68;;;;;;;9.60;75.77;101012.81;5093990;28;20048;-53
2022/10/10 04:32:13;;;;;;;16.42;4.93;;;;;;;9.76;75.64;101012.22;5093836;28;20040;-53
2022/10/10 04:34:40;;;;;;;12.82;5.00;;;;;;;9.72;76.17;101004.72;5094131;28;20051;-54
2022/10/10 04:37:07;;;;;;;11.20;4.70;;;;;;;9.71;75.91;101003.03;5093632;28;20048;-51
2022/10/10 04:39:34;;;;;;;15.00;5.00;;;;;;;9.69;75.52;101004.97;5093655;28;20515;-54
2022/10/10 04:42:00;;;;;;;17.27;5.00;;;;;;;9.57;76.35;100999.84;5092185;28;20032;-53
2022/10/10 04:44:27;;;;;;;11.25;4.65;;;;;;;9.65;76.11;100995.66;5093515;28;20043;-54
2022/10/10 04:46:54;;;;;;;13.95;5.03;;;;;;;9.60;76.44;100996.91;5093711;28;20508;-54
2022/10/10 04:49:22;;;;;;;12.68;5.43;;;;;;;9.65;75.72;100996.47;5092151;28;20482;-55
2022/10/10 04:51:49;;;;;;;14.52;5.20;;;;;;;9.63;75.98;100998.44;4975799;28;20058;-52
2022/10/10 04:54:15;;;;;;;11.60;4.72;;;;;;;9.68;76.01;100990.06;5093727;28;20055;-53
2022/10/10 04:56:42;;;;;;;11.20;4.90;;;;;;;9.52;76.53;100999.44;5092863;28;20063;-52
2022/10/10 04:59:09;;;;;;;10.60;5.10;;;;;;;9.58;76.27;100998.84;5093665;28;20048;-51
2022/10/10 05:01:36;;;;;;;13.73;5.20;;;;;;;9.70;76.27;101002.19;5093190;28;20048;-53
2022/10/10 05:04:03;;;;;;;17.58;5.22;;;;;;;9.66;76.09;100998.16;5093047;28;20101;-52
2022/10/10 05:06:30;;;;;;;13.25;5.03;;;;;;;9.65;76.17;101003.59;5079201;28;20468;-52
2022/10/10 05:08:57;;;;;;;15.73;5.10;;;;;;;9.72;75.97;101004.72;5093514;28;20102;-53
2022/10/10 05:11:24;;;;;;;12.38;5.15;;;;;;;9.66;76.05;101003.47;5092904;28;20489;-53
2022/10/10 05:13:51;;;;;;;12.35;5.63;;;;;;;9.63;76.59;101000.25;5093172;28;20044;-52
2022/10/10 05:16:17;;;;;;;12.65;5.45;;;;;;;9.69;76.30;101008.47;5075561;28;20052;-53
2022/10/10 05:18:44;;;;;;;12.70;5.00;;;;;;;9.55;76.61;100999.16;5091848;28;20409;-53
2022/10/10 05:21:10;;;;;;;11.93;5.05;;;;;;;9.58;76.95;101005.97;5093113;28;20052;-53
2022/10/10 05:23:40;;;;;;;11.68;5.05;;;;;;;9.51;77.33;100995.09;5093094;28;20036;-53
2022/10/10 05:26:08;;;;;;;14.07;5.25;;;;;;;9.48;77.55;100991.88;5066357;28;20043;-55
2022/10/10 05:28:35;;;;;;;12.95;5.75;;;;;;;9.46;77.59;100999.13;5092862;28;20041;-55
2022/10/10 05:31:03;;;;;;;12.10;5.18;;;;;;;9.50;77.54;101003.19;5092868;28;20040;-50
2022/10/10 05:33:32;;;;;;;12.82;5.43;;;;;;;9.64;77.23;100996.63;5092787;28;20517;-54
2022/10/10 05:36:03;;;;;;;13.73;5.25;;;;;;;9.48;77.78;101002.47;5091932;28;20052;-52
2022/10/10 05:38:30;;;;;;;14.57;5.65;;;;;;;9.54;77.78;100996.63;5092222;28;20073;-54
2022/10/10 05:40:57;;;;;;;16.05;5.60;;;;;;;9.49;77.98;101004.16;5093102;28;20101;-54
2022/10/10 05:43:24;;;;;;;17.65;5.50;;;;;;;9.51;78.06;100999.56;5092698;28;20040;-52
2022/10/10 05:45:50;;;;;;;23.55;5.65;;;;;;;9.43;78.24;100999.44;5092420;28;20468;-51
2022/10/10 05:48:18;;;;;;;13.07;5.57;;;;;;;9.48;78.18;100999.84;5091774;28;20132;-53
2022/10/10 05:50:48;;;;;;;17.02;6.00;;;;;;;9.33;78.72;100994.13;5054394;28;20123;-52
2022/10/10 05:53:15;;;;;;;18.70;5.97;;;;;;;9.41;78.50;100997.75;5025306;28;20047;-53
2022/10/10 05:55:43;;;;;;;16.85;5.70;;;;;;;9.47;78.53;101009.59;5083041;28;20055;-53
2022/10/10 05:58:12;;;;;;;15.82;5.82;;;;;;;9.46;78.39;101007.94;5092388;28;20048;-54
2022/10/10 06:00:40;;;;;;;14.43;5.90;;;;;;;9.41;78.68;101000.41;5092816;28;20048;-52
2022/10/10 06:03:07;;;;;;;17.40;6.07;;;;;;;9.44;78.69;101009.91;5092726;28;20047;-52
2022/10/10 06:05:35;;;;;;;14.80;6.03;;;;;;;9.45;78.66;101003.59;5092038;28;20055;-51
2022/10/10 06:08:02;;;;;;;13.13;6.00;;;;;;;9.49;78.98;101005.00;5093999;28;20042;-52
2022/10/10 06:10:36;;;;;;;15.03;6.17;;;;;;;9.53;78.84;101000.25;5096272;28;20052;-52
2022/10/10 06:13:03;;;;;;;13.45;6.10;;;;;;;9.54;78.63;101008.06;5096476;28;20056;-51
2022/10/10 06:15:30;;;;;;;16.77;5.97;;;;;;;9.54;78.68;101012.53;5096115;28;20054;-53
2022/10/10 06:17:57;;;;;;;12.68;5.95;;;;;;;9.57;78.82;101010.44;5096477;28;20061;-52
2022/10/10 06:20:23;;;;;;;24.20;6.85;;;;;;;9.67;78.56;101010.41;5096044;28;20066;-52
2022/10/10 06:22:50;;;;;;;21.25;6.57;;;;;;;9.55;78.83;101012.41;5096233;28;20051;-53
2022/10/10 06:25:17;;;;;;;14.35;6.38;;;;;;;9.57;79.09;101007.78;5095137;28;20040;-53
2022/10/10 06:27:55;;;;;;;17.05;6.18;;;;;;;9.63;78.80;101010.84;5095842;28;20513;-52
2022/10/10 06:30:22;;;;;;;16.67;6.88;;;;;;;9.72;78.82;101012.66;5096468;28;20105;-54
2022/10/10 06:32:48;;;;;;;16.88;6.50;;;;;;;9.79;78.44;101019.06;5094842;28;20505;-53
2022/10/10 06:35:17;;;;;;;14.70;6.55;;;;;;;9.75;78.41;101017.66;5092907;28;20082;-53
2022/10/10 06:37:44;;;;;;;14.55;6.32;;;;;;;9.77;78.65;101023.66;5087311;28;20040;-52
2022/10/10 06:40:11;;;;;;;14.90;6.90;;;;;;;9.73;78.76;101022.25;5081738;28;20332;-53
2022/10/10 06:42:37;;;;;;;15.98;6.65;;;;;;;9.79;78.58;101021.72;5088718;28;20044;-54
2022/10/10 06:45:04;;;;;;;19.10;6.75;;;;;;;9.89;78.04;101026.97;5089648;28;20040;-52
2022/10/10 06:47:31;;;;;;;15.13;6.60;;;;;;;9.97;78.41;101027.94;5092943;28;20040;-54
2022/10/10 06:49:58;;;;;;;23.48;7.40;;;;;;;9.98;78.29;101034.91;5090233;28;20048;-54
2022/10/10 06:52:25;;;;;;;21.27;7.13;;;;;;;10.05;78.12;101040.47;5062922;28;20120;-53
2022/10/10 06:54:52;;;;;;;17.23;6.63;;;;;;;9.97;78.12;101043.84;5083503;28;20040;-54
2022/10/10 06:57:18;;;;;;;19.77;7.53;;;;;;;10.07;78.34;101040.34;5083377;28;20039;-54
2022/10/10 06:59:45;;;;;;;332.23;142.63;;;;;;;10.05;78.83;101029.03;5104116;28;20039;-47
2022/10/10 07:02:12;;;;;;;23.98;9.68;;;;;;;10.10;78.21;101024.97;5094908;28;20036;-52
2022/10/10 07:04:39;;;;;;;14.75;6.70;;;;;;;10.25;78.05;101032.47;5095200;28;20075;-54
2022/10/10 07:07:05;;;;;;;25.90;10.98;;;;;;;10.30;78.24;101036.34;5091329;28;20052;-48
2022/10/10 07:09:32;;;;;;;35.60;13.52;;;;;;;10.36;78.24;101034.97;5082486;28;20048;-52
2022/10/10 07:11:59;;;;;;;28.20;7.88;;;;;;;10.40;77.64;101032.88;5092902;28;20370;-54
2022/10/10 07:14:26;;;;;;;19.20;6.65;;;;;;;10.45;77.54;101034.09;5104133;28;20052;-54
2022/10/10 07:16:53;;;;;;;23.10;7.05;;;;;;;10.54;77.34;101040.34;5092455;28;20040;-54
2022/10/10 07:19:20;;;;;;;20.77;6.68;;;;;;;10.62;77.91;101039.59;5070824;28;20166;-52
2022/10/10 07:21:47;;;;;;;17.38;7.50;;;;;;;10.52;77.28;101037.84;5091110;28;20121;-52
2022/10/10 07:24:13;;;;;;;18.77;7.70;;;;;;;10.69;77.13;101043.34;5101506;28;20602;-53
2022/10/10 07:26:40;;;;;;;18.60;7.13;;;;;;;10.75;76.45;101037.44;5096786;28;20055;-53
2022/10/10 07:29:07;;;;;;;21.88;7.93;;;;;;;10.87;77.01;101040.75;5081931;28;20127;-52
2022/10/10 07:31:33;;;;;;;21.23;8.27;;;;;;;10.97;76.51;101045.97;5088256;28;20043;-54
2022/10/10 07:34:00;;;;;;;19.10;7.95;;;;;;;11.08;76.13;101037.81;5095499;28;20048;-54
2022/10/10 07:36:27;;;;;;;18.92;7.60;;;;;;;11.03;75.82;101037.44;5081757;28;20080;-54
2022/10/10 07:38:54;;;;;;;16.40;7.90;;;;;;;11.23;75.78;101040.78;5100457;28;20047;-54
2022/10/10 07:41:20;;;;;;;17.27;7.57;;;;;;;11.09;76.22;101044.78;5090778;28;20063;-54
2022/10/10 07:43:47;;;;;;;15.88;7.70;;;;;;;11.22;76.37;101042.59;5090243;28;20043;-55
2022/10/10 07:46:18;;;;;;;21.48;7.95;;;;;;;11.29;75.67;101050.78;5085364;28;20401;-55
2022/10/10 07:48:45;;;;;;;16.95;7.85;;;;;;;11.34;75.49;101044.03;5081322;28;20048;-54
2022/10/10 07:51:12;;;;;;;26.25;8.10;;;;;;;11.32;75.92;101046.03;5052733;28;20129;-54
2022/10/10 07:53:40;;;;;;;22.88;7.82;;;;;;;11.47;75.58;101046.31;5095317;28;20067;-54
2022/10/10 07:56:08;;;;;;;19.42;7.82;;;;;;;11.44;75.63;101041.31;5086718;28;20089;-54
2022/10/10 07:58:35;;;;;;;21.45;8.07;;;;;;;11.42;75.97;101045.94;5098995;28;20040;-53
2022/10/10 08:01:06;;;;;;;19.55;7.88;;;;;;;11.63;75.72;101042.16;5093634;28;20497;-53
2022/10/10 08:03:33;;;;;;;18.55;8.07;;;;;;;11.63;75.08;101050.13;5087551;28;20097;-55
2022/10/10 08:06:04;;;;;;;19.50;9.18;;;;;;;11.59;75.55;101051.38;5108379;28;20040;-55
2022/10/10 08:08:32;;;;;;;23.33;8.50;;;;;;;11.74;75.53;101049.88;5087777;28;20054;-54
2022/10/10 08:11:00;;;;;;;17.10;8.10;;;;;;;11.75;75.10;101051.56;5097881;28;20048;-54
2022/10/10 08:13:27;;;;;;;21.15;8.23;;;;;;;11.70;74.94;101048.50;5090195;28;20040;-55
2022/10/10 08:15:53;;;;;;;18.10;8.00;;;;;;;11.62;75.40;101054.56;5086578;28;20040;-55
2022/10/10 08:18:20;;;;;;;21.30;8.68;;;;;;;11.70;75.40;101053.84;5092958;28;20074;-55
2022/10/10 08:20:47;;;;;;;18.92;7.75;;;;;;;11.72;75.55;101050.03;5081588;28;20056;-55
2022/10/10 08:23:13;;;;;;;23.48;7.78;;;;;;;11.81;75.29;101047.44;5083252;28;20036;-55
2022/10/10 08:25:40;;;;;;;20.73;7.95;;;;;;;11.86;75.53;101048.63;5086081;28;20036;-54
2022/10/10 08:28:07;;;;;;;16.90;7.57;;;;;;;11.98;75.74;101049.25;5084023;28;20051;-55
2022/10/10 08:30:33;;;;;;;25.92;8.50;;;;;;;12.04;75.45;101058.41;5075454;28;20044;-54
2022/10/10 08:33:00;;;;;;;25.38;7.95;;;;;;;12.01;75.49;101059.56;5074061;28;20028;-54
2022/10/10 08:35:27;;;;;;;17.35;7.60;;;;;;;12.02;74.65;101055.91;5076202;28;20108;-54
2022/10/10 08:37:54;;;;;;;18.30;7.32;;;;;;;12.03;75.21;101060.25;5076988;28;20044;-55
2022/10/10 08:40:22;;;;;;;18.85;8.20;;;;;;;12.14;75.31;101059.16;5073621;28;20473;-54
2022/10/10 08:42:53;;;;;;;23.58;8.45;;;;;;;12.08;74.82;101062.44;5079707;28;20036;-55
2022/10/10 08:45:25;;;;;;;22.90;9.27;;;;;;;12.09;74.83;101061.44;5073488;28;20041;-55
2022/10/10 08:47:58;;;;;;;27.25;9.05;;;;;;;12.20;75.14;101058.53;5067998;28;20047;-55
2022/10/10 08:50:31;;;;;;;24.20;8.35;;;;;;;12.31;75.01;101067.25;5071743;28;20437;-55
2022/10/10 08:53:08;;;;;;;21.38;8.07;;;;;;;12.47;74.41;101075.31;5038800;28;20713;-55
2022/10/10 08:55:39;;;;;;;22.52;8.18;;;;;;;12.36;74.81;101065.78;5091725;28;20053;-55
2022/10/10 08:58:17;;;;;;;25.30;8.27;;;;;;;12.52;74.15;101061.53;5066552;28;20044;-55
2022/10/10 09:00:48;;;;;;;15.80;8.10;;;;;;;12.67;73.87;101079.38;5084025;28;20037;-54
2022/10/10 09:03:23;;;;;;;20.30;8.43;;;;;;;12.76;73.56;101079.44;5075853;28;20032;-55
2022/10/10 09:06:06;;;;;;;21.38;9.60;;;;;;;12.89;73.95;101079.00;5087226;28;20395;-55
2022/10/10 09:08:48;;;;;;;20.73;8.10;;;;;;;12.92;73.90;101063.53;5080952;28;21536;-55
2022/10/10 09:11:55;;;;;;;16.92;8.20;;;;;;;12.99;73.36;101067.22;5066759;28;20048;-54
2022/10/10 09:14:38;;;;;;;22.55;7.95;;;;;;;13.17;73.57;101061.78;5086413;28;20320;-55
2022/10/10 09:17:21;;;;;;;22.30;8.13;;;;;;;13.29;73.39;101067.59;5087105;28;20127;-55
2022/10/10 09:20:12;;;;;;;26.95;7.95;;;;;;;13.37;73.06;101067.66;5092237;28;20508;-55
2022/10/10 09:22:52;;;;;;;23.10;7.40;;;;;;;13.65;72.47;101071.84;5080407;28;20044;-54
2022/10/10 09:25:26;;;;;;;24.88;8.00;;;;;;;13.85;71.29;101067.03;5073071;28;20053;-55
2022/10/10 09:28:00;;;;;;;18.58;7.45;;;;;;;14.12;71.37;101069.31;5066931;28;20045;-55
2022/10/10 09:30:32;;;;;;;17.10;7.32;;;;;;;14.36;70.93;101078.28;5077536;28;20048;-55
2022/10/10 09:35:58;;;;;;;23.25;7.78;;;;;;;15.67;66.38;101092.84;5129788;27;20189;-54
2022/10/10 09:38:37;;;;;;;16.52;6.80;;;;;;;16.60;62.86;101090.81;5096984;28;20131;-54
2022/10/10 09:41:13;;;;;;;25.50;7.50;;;;;;;18.04;56.87;101088.28;5090042;28;20048;-54
2022/10/10 09:43:40;;;;;;;158.02;90.43;;;;;;;18.71;54.61;101092.22;5084659;28;20123;-42
2022/10/10 09:46:07;;;;;;;58.45;26.25;;;;;;;19.39;53.90;101086.06;5108512;28;20051;-55
2022/10/10 09:48:40;;;;;;;27.65;7.80;;;;;;;20.73;49.87;101078.75;5089768;28;20062;-55
2022/10/10 09:51:13;;;;;;;19.60;6.22;;;;;;;21.56;46.71;101079.81;5056205;28;20111;-55
2022/10/10 09:53:41;;;;;;;23.52;6.70;;;;;;;22.27;44.35;101092.09;5066568;28;20048;-55
2022/10/10 09:56:28;;;;;;;20.60;6.45;;;;;;;23.19;43.04;101099.34;5089069;28;20508;-55
2022/10/10 09:58:56;;;;;;;20.08;6.57;;;;;;;24.09;41.58;101086.75;5105595;28;20143;-55
2022/10/10 10:01:29;;;;;;;22.40;7.47;;;;;;;24.16;39.84;101087.47;5096896;28;20101;-55
2022/10/10 10:04:17;;;;;;;21.35;6.45;;;;;;;24.77;39.63;101087.97;5100831;28;20040;-56
2022/10/10 10:07:16;;;;;;;25.58;6.93;;;;;;;26.01;37.09;101086.44;5106238;28;20101;-55
2022/10/10 10:09:50;;;;;;;20.67;7.13;;;;;;;26.10;36.68;101089.53;5085017;28;20123;-55
2022/10/10 10:12:23;;;;;;;20.17;6.57;;;;;;;25.99;36.30;101083.13;5087842;28;20402;-55
2022/10/10 10:14:57;;;;;;;16.73;6.65;;;;;;;26.01;36.57;101089.16;5085507;28;20502;-55
2022/10/10 10:17:24;;;;;;;20.67;6.50;;;;;;;26.34;35.30;101083.88;5088320;28;20044;-56
2022/10/10 10:19:51;;;;;;;27.13;6.25;;;;;;;25.25;36.48;101086.75;5099359;28;20093;-55
2022/10/10 10:22:36;;;;;;;16.45;5.80;;;;;;;25.59;36.16;101091.41;5099215;28;20060;-55
2022/10/10 10:25:34;;;;;;;21.30;5.20;;;;;;;24.97;36.71;101098.41;5085215;28;20704;-55
2022/10/10 10:28:20;;;;;;;16.40;5.03;;;;;;;24.98;37.51;101089.22;5101090;28;20044;-55
2022/10/10 10:30:47;;;;;;;20.67;6.05;;;;;;;24.41;38.40;101094.50;5097345;28;20048;-54
2022/10/10 10:33:32;;;;;;;23.90;5.03;;;;;;;25.14;36.82;101098.47;5068935;28;20048;-55
2022/10/10 10:36:30;;;;;;;21.30;5.95;;;;;;;24.69;38.22;101099.22;5080945;28;20119;-55
2022/10/10 10:39:37;;;;;;;20.20;5.60;;;;;;;24.61;38.90;101097.66;5095474;28;20145;-54
2022/10/10 10:42:21;;;;;;;33.42;12.80;;;;;;;24.55;38.91;101095.94;5083844;28;20052;-41
2022/10/10 10:47:40;;;;;;;18.92;5.03;;;;;;;23.18;41.74;101103.13;5095153;27;20941;-55
2022/10/10 10:56:48;;;;;;;19.95;5.30;;;;;;;20.97;46.45;101100.66;5109683;27;20350;-55
2022/10/10 10:59:47;;;;;;;23.05;4.70;;;;;;;20.47;49.38;101091.25;5109178;28;20525;-56
2022/10/10 11:02:30;;;;;;;22.48;4.95;;;;;;;20.28;50.08;101089.41;5116227;28;20039;-55
2022/10/10 11:05:37;;;;;;;17.05;4.60;;;;;;;21.06;48.66;101099.34;5130433;27;20043;-55
2022/10/10 11:08:44;;;;;;;15.57;4.43;;;;;;;22.29;45.57;101089.19;5118919;27;20126;-55
2022/10/10 11:11:38;;;;;;;24.83;4.75;;;;;;;22.45;44.79;101083.19;5115063;28;20055;-55
2022/10/10 11:14:20;;;;;;;18.75;4.47;;;;;;;22.42;43.99;101083.63;5110639;27;20055;-55
2022/10/10 11:16:54;;;;;;;23.48;4.55;;;;;;;22.51;43.47;101093.09;5120694;28;20135;-55
2022/10/10 11:19:43;;;;;;;18.08;3.83;;;;;;;22.46;43.90;101084.00;5116751;27;20032;-55
2022/10/10 11:22:16;;;;;;;23.58;4.35;;;;;;;21.64;45.93;101091.16;5099144;28;20486;-56
2022/10/10 11:24:52;;;;;;;16.73;4.00;;;;;;;21.47;46.77;101096.25;5090047;28;20047;-56
2022/10/10 11:27:27;;;;;;;15.25;4.03;;;;;;;22.00;45.44;101086.91;5105023;28;20048;-55
2022/10/10 11:32:46;;;;;;;33.45;4.38;;;;;;;21.97;45.67;101086.53;5127526;27;20386;-55
2022/10/10 11:35:21;;;;;;;20.50;4.15;;;;;;;21.55;46.47;101094.34;5091689;28;20076;-54
2022/10/10 11:37:53;;;;;;;23.70;4.35;;;;;;;20.53;48.83;101092.25;5105511;28;20040;-54
2022/10/10 11:40:27;;;;;;;34.65;13.70;;;;;;;20.53;49.15;101087.69;5081268;28;20455;-55
2022/10/10 11:43:00;;;;;;;19.60;4.85;;;;;;;20.12;50.36;101088.81;5105395;28;20040;-53
2022/10/10 11:45:34;;;;;;;24.55;4.30;;;;;;;19.40;52.00;101085.03;5109033;28;20054;-55
2022/10/10 11:48:27;;;;;;;29.73;4.43;;;;;;;19.40;52.56;101087.72;5105284;28;20048;-55
2022/10/10 11:51:00;;;;;;;22.40;4.13;;;;;;;19.21;53.15;101083.97;5081601;28;20048;-56
2022/10/10 11:53:44;;;;;;;21.98;4.75;;;;;;;18.99;54.42;101086.78;5091904;28;20048;-55
2022/10/10 11:56:25;;;;;;;28.73;4.93;;;;;;;19.14;53.84;101083.13;5052497;28;20490;-55